createdAt,value
2023-02-18T00:00:03.826Z,1014.30
2023-02-18T00:01:03.888Z,1014.22
2023-02-18T00:02:03.858Z,1014.30
2023-02-18T00:03:03.815Z,1014.21
2023-02-18T00:04:03.791Z,1014.23
2023-02-18T00:05:03.798Z,1014.21
2023-02-18T00:06:03.752Z,1014.18
2023-02-18T00:07:04.039Z,1014.21
2023-02-18T00:08:03.742Z,1014.14
2023-02-18T00:09:03.748Z,1014.17
2023-02-18T00:10:03.713Z,1014.18
2023-02-18T00:11:03.769Z,1014.17
2023-02-18T00:12:03.718Z,1014.20
2023-02-18T00:13:03.726Z,1014.21
2023-02-18T00:14:03.682Z,1014.21
2023-02-18T00:15:03.687Z,1014.19
2023-02-18T00:16:03.657Z,1014.20
2023-02-18T00:17:03.672Z,1014.14
2023-02-18T00:18:03.627Z,1014.10
2023-02-18T00:19:03.870Z,1014.08
2023-02-18T00:20:03.860Z,1014.08
2023-02-18T00:21:03.615Z,1014.08
2023-02-18T00:22:03.595Z,1014.07
2023-02-18T00:23:03.806Z,1014.07
2023-02-18T00:24:03.557Z,1014.05
2023-02-18T00:25:03.623Z,1014.07
2023-02-18T00:26:03.599Z,1014.06
2023-02-18T00:27:03.559Z,1014.08
2023-02-18T00:28:03.597Z,1014.04
2023-02-18T00:29:03.545Z,1014.09
2023-02-18T00:30:03.576Z,1014.10
2023-02-18T00:31:03.650Z,1014.07
2023-02-18T00:32:03.610Z,1014.09
2023-02-18T00:33:03.488Z,1014.08
2023-02-18T00:34:03.461Z,1014.08
2023-02-18T00:35:03.490Z,1014.10
2023-02-18T00:36:03.439Z,1014.10
2023-02-18T00:37:03.545Z,1014.08
2023-02-18T00:38:03.408Z,1014.10
2023-02-18T00:39:03.430Z,1014.16
2023-02-18T00:40:03.386Z,1014.16
2023-02-18T00:41:03.406Z,1014.12
2023-02-18T00:42:03.386Z,1014.07
2023-02-18T00:43:03.421Z,1014.08
2023-02-18T00:44:03.347Z,1014.08
2023-02-18T00:45:03.354Z,1014.05
2023-02-18T00:46:03.347Z,1014.06
2023-02-18T00:47:03.350Z,1014.04
2023-02-18T00:48:03.315Z,1014.03
2023-02-18T00:49:03.333Z,1014.02
2023-02-18T00:50:03.453Z,1013.99
2023-02-18T00:51:03.300Z,1013.96
2023-02-18T00:52:03.262Z,1013.93
2023-02-18T00:53:03.311Z,1013.93
2023-02-18T00:54:03.234Z,1013.89
2023-02-18T00:55:03.271Z,1013.86
2023-02-18T00:56:03.219Z,1013.86
2023-02-18T00:57:03.234Z,1013.86
2023-02-18T00:58:03.200Z,1013.86
2023-02-18T00:59:03.211Z,1013.84
2023-02-18T01:00:03.222Z,1013.82
2023-02-18T01:01:03.202Z,1013.83
2023-02-18T01:02:03.164Z,1013.84
2023-02-18T01:03:03.162Z,1013.85
2023-02-18T01:04:03.133Z,1013.85
2023-02-18T01:05:03.326Z,1013.82
2023-02-18T01:06:03.144Z,1013.83
2023-02-18T01:07:03.130Z,1013.85
2023-02-18T01:08:03.097Z,1013.84
2023-02-18T01:09:03.112Z,1013.82
2023-02-18T01:10:03.088Z,1013.80
2023-02-18T01:11:03.080Z,1013.77
2023-02-18T01:12:03.069Z,1013.77
2023-02-18T01:13:03.073Z,1013.74
2023-02-18T01:14:03.030Z,1013.73
2023-02-18T01:15:03.044Z,1013.70
2023-02-18T01:16:03.067Z,1013.71
2023-02-18T01:17:03.058Z,1013.73
2023-02-18T01:18:02.998Z,1013.74
2023-02-18T01:19:03.005Z,1013.75
2023-02-18T01:20:02.965Z,1013.78
2023-02-18T01:21:02.973Z,1013.80
2023-02-18T01:22:02.947Z,1013.81
2023-02-18T01:23:03.046Z,1013.79
2023-02-18T01:24:02.944Z,1013.79
2023-02-18T01:25:02.941Z,1013.79
2023-02-18T01:26:02.904Z,1013.77
2023-02-18T01:27:02.921Z,1013.77
2023-02-18T01:28:02.906Z,1013.83
2023-02-18T01:29:02.923Z,1013.83
2023-02-18T01:30:02.957Z,1013.81
2023-02-18T01:31:02.896Z,1013.82
2023-02-18T01:32:03.013Z,1013.81
2023-02-18T01:33:02.860Z,1013.78
2023-02-18T01:34:02.814Z,1013.77
2023-02-18T01:35:02.872Z,1013.74
2023-02-18T01:36:02.802Z,1013.74
2023-02-18T01:37:02.809Z,1013.72
2023-02-18T01:38:02.771Z,1013.71
2023-02-18T01:39:02.789Z,1013.72
2023-02-18T01:40:02.752Z,1013.74
2023-02-18T01:41:02.793Z,1013.75
2023-02-18T01:42:02.739Z,1013.75
2023-02-18T01:43:02.764Z,1013.72
2023-02-18T01:44:02.707Z,1013.71
2023-02-18T01:45:02.720Z,1013.72
2023-02-18T01:46:02.711Z,1013.69
2023-02-18T01:47:02.742Z,1013.69
2023-02-18T01:48:02.671Z,1013.71
2023-02-18T01:49:02.689Z,1013.68
2023-02-18T01:50:02.646Z,1013.65
2023-02-18T01:51:02.650Z,1013.61
2023-02-18T01:52:02.638Z,1013.62
2023-02-18T01:53:02.654Z,1013.61
2023-02-18T01:54:02.596Z,1013.61
2023-02-18T01:55:02.615Z,1013.60
2023-02-18T01:56:02.586Z,1013.61
2023-02-18T01:57:02.649Z,1013.58
2023-02-18T01:58:02.556Z,1013.58
2023-02-18T01:59:02.578Z,1013.58
2023-02-18T02:00:02.540Z,1013.57
2023-02-18T02:01:02.600Z,1013.56
2023-02-18T02:02:02.616Z,1013.54
2023-02-18T02:03:02.551Z,1013.53
2023-02-18T02:04:02.490Z,1013.51
2023-02-18T02:05:02.533Z,1013.48
2023-02-18T02:06:02.479Z,1013.45
2023-02-18T02:07:02.530Z,1013.37
2023-02-18T02:08:02.446Z,1013.37
2023-02-18T02:09:02.466Z,1013.35
2023-02-18T02:10:02.429Z,1013.34
2023-02-18T02:11:02.444Z,1013.34
2023-02-18T02:12:02.430Z,1013.36
2023-02-18T02:13:02.439Z,1013.35
2023-02-18T02:14:02.400Z,1013.32
2023-02-18T02:15:02.400Z,1013.31
2023-02-18T02:16:02.411Z,1013.32
2023-02-18T02:17:02.394Z,1013.33
2023-02-18T02:18:02.353Z,1013.30
2023-02-18T02:19:02.385Z,1013.34
2023-02-18T02:20:02.353Z,1013.35
2023-02-18T02:21:02.361Z,1013.39
2023-02-18T02:22:02.322Z,1013.34
2023-02-18T02:23:02.326Z,1013.39
2023-02-18T02:24:02.283Z,1013.33
2023-02-18T02:25:02.307Z,1013.34
2023-02-18T02:26:02.264Z,1013.33
2023-02-18T02:27:02.292Z,1013.32
2023-02-18T02:28:02.277Z,1013.30
2023-02-18T02:29:02.254Z,1013.31
2023-02-18T02:30:02.300Z,1013.31
2023-02-18T02:31:02.280Z,1013.32
2023-02-18T02:32:02.217Z,1013.33
2023-02-18T02:33:02.232Z,1013.28
2023-02-18T02:34:02.182Z,1013.31
2023-02-18T02:35:02.206Z,1013.28
2023-02-18T02:36:02.162Z,1013.24
2023-02-18T02:37:02.172Z,1013.24
2023-02-18T02:38:02.147Z,1013.20
2023-02-18T02:39:02.141Z,1013.19
2023-02-18T02:40:02.124Z,1013.20
2023-02-18T02:41:02.119Z,1013.20
2023-02-18T02:42:02.097Z,1013.18
2023-02-18T02:43:02.176Z,1013.17
2023-02-18T02:44:02.104Z,1013.17
2023-02-18T02:45:02.086Z,1013.15
2023-02-18T02:46:02.135Z,1013.12
2023-02-18T02:47:02.081Z,1013.10
2023-02-18T02:48:02.061Z,1013.10
2023-02-18T02:49:02.053Z,1013.09
2023-02-18T02:50:02.052Z,1013.08
2023-02-18T02:51:02.018Z,1013.05
2023-02-18T02:52:02.018Z,1013.02
2023-02-18T02:53:02.003Z,1012.98
2023-02-18T02:54:01.986Z,1012.94
2023-02-18T02:55:01.974Z,1012.91
2023-02-18T02:56:01.975Z,1012.86
2023-02-18T02:57:01.998Z,1012.84
2023-02-18T02:58:01.918Z,1012.83
2023-02-18T02:59:01.974Z,1012.89
2023-02-18T03:00:01.897Z,1012.85
2023-02-18T03:01:01.980Z,1012.83
2023-02-18T03:02:01.896Z,1012.82
2023-02-18T03:03:01.900Z,1012.73
2023-02-18T03:04:01.870Z,1012.76
2023-02-18T03:05:01.912Z,1012.77
2023-02-18T03:06:01.861Z,1012.74
2023-02-18T03:07:01.847Z,1012.74
2023-02-18T03:08:01.814Z,1012.77
2023-02-18T03:09:01.849Z,1012.74
2023-02-18T03:10:01.794Z,1012.75
2023-02-18T03:11:01.832Z,1012.71
2023-02-18T03:12:01.771Z,1012.69
2023-02-18T03:13:01.793Z,1012.67
2023-02-18T03:14:01.751Z,1012.68
2023-02-18T03:15:01.770Z,1012.68
2023-02-18T03:16:01.733Z,1012.61
2023-02-18T03:17:01.792Z,1012.59
2023-02-18T03:18:01.707Z,1012.54
2023-02-18T03:19:01.721Z,1012.51
2023-02-18T03:20:01.685Z,1012.51
2023-02-18T03:21:01.705Z,1012.46
2023-02-18T03:22:01.680Z,1012.43
2023-02-18T03:23:01.723Z,1012.43
2023-02-18T03:24:01.655Z,1012.46
2023-02-18T03:25:01.672Z,1012.43
2023-02-18T03:26:01.625Z,1012.42
2023-02-18T03:27:01.634Z,1012.40
2023-02-18T03:28:01.631Z,1012.33
2023-02-18T03:29:01.631Z,1012.31
2023-02-18T03:30:01.628Z,1012.24
2023-02-18T03:31:01.690Z,1012.28
2023-02-18T03:32:01.635Z,1012.20
2023-02-18T03:33:02.080Z,1012.24
2023-02-18T03:34:01.553Z,1012.22
2023-02-18T03:35:02.078Z,1012.21
2023-02-18T03:36:01.536Z,1012.19
2023-02-18T03:37:01.774Z,1012.17
2023-02-18T03:38:01.501Z,1012.16
2023-02-18T03:39:02.091Z,1012.14
2023-02-18T03:40:01.523Z,1012.12
2023-02-18T03:41:01.488Z,1012.07
2023-02-18T03:42:01.509Z,1012.11
2023-02-18T03:43:01.460Z,1012.11
2023-02-18T03:44:01.474Z,1012.03
2023-02-18T03:45:01.452Z,1012.07
2023-02-18T03:46:01.496Z,1012.08
2023-02-18T03:47:01.412Z,1012.08
2023-02-18T03:48:01.436Z,1012.01
2023-02-18T03:49:01.380Z,1011.99
2023-02-18T03:50:01.403Z,1012.03
2023-02-18T03:51:01.357Z,1012.02
2023-02-18T03:52:01.390Z,1012.03
2023-02-18T03:53:01.336Z,1012.03
2023-02-18T03:54:01.356Z,1012.02
2023-02-18T03:55:01.317Z,1011.95
2023-02-18T03:56:01.337Z,1012.00
2023-02-18T03:57:01.310Z,1012.02
2023-02-18T03:58:01.329Z,1011.93
2023-02-18T03:59:01.275Z,1011.98
2023-02-18T04:00:01.288Z,1011.95
2023-02-18T04:01:01.274Z,1011.97
2023-02-18T04:02:01.269Z,1011.96
2023-02-18T04:03:01.227Z,1012.00
2023-02-18T04:04:01.292Z,1011.87
2023-02-18T04:05:01.212Z,1011.85
2023-02-18T04:06:01.223Z,1011.81
2023-02-18T04:07:01.228Z,1011.78
2023-02-18T04:08:01.210Z,1011.76
2023-02-18T04:09:01.185Z,1011.75
2023-02-18T04:10:01.191Z,1011.80
2023-02-18T04:11:01.142Z,1011.76
2023-02-18T04:12:01.217Z,1011.73
2023-02-18T04:13:01.117Z,1011.70
2023-02-18T04:14:01.141Z,1011.71
2023-02-18T04:15:01.137Z,1011.72
2023-02-18T04:16:01.113Z,1011.67
2023-02-18T04:17:01.112Z,1011.68
2023-02-18T04:18:01.102Z,1011.68
2023-02-18T04:19:01.065Z,1011.70
2023-02-18T04:20:01.120Z,1011.69
2023-02-18T04:21:01.056Z,1011.69
2023-02-18T04:22:01.053Z,1011.68
2023-02-18T04:23:01.031Z,1011.69
2023-02-18T04:24:01.040Z,1011.65
2023-02-18T04:25:01.239Z,1011.65
2023-02-18T04:26:01.057Z,1011.67
2023-02-18T04:27:00.965Z,1011.63
2023-02-18T04:28:00.990Z,1011.63
2023-02-18T04:29:00.971Z,1011.61
2023-02-18T04:30:01.016Z,1011.60
2023-02-18T04:32:28.120Z,1011.59
2023-02-18T04:32:32.961Z,1011.57
2023-02-18T04:33:33.083Z,1011.55
2023-02-18T04:34:32.932Z,1011.55
2023-02-18T04:35:32.913Z,1011.51
2023-02-18T04:36:32.916Z,1011.54
2023-02-18T04:37:32.920Z,1011.51
2023-02-18T04:38:32.896Z,1011.48
2023-02-18T04:39:32.883Z,1011.47
2023-02-18T04:40:32.866Z,1011.49
2023-02-18T04:41:32.840Z,1011.44
2023-02-18T04:42:32.848Z,1011.48
2023-02-18T04:43:32.832Z,1011.42
2023-02-18T04:44:32.839Z,1011.43
2023-02-18T04:45:32.806Z,1011.39
2023-02-18T04:46:32.863Z,1011.38
2023-02-18T04:47:32.772Z,1011.34
2023-02-18T04:48:32.784Z,1011.28
2023-02-18T04:49:32.764Z,1011.27
2023-02-18T04:50:32.768Z,1011.24
2023-02-18T04:51:32.728Z,1011.25
2023-02-18T04:52:32.770Z,1011.25
2023-02-18T04:53:32.707Z,1011.26
2023-02-18T04:54:32.735Z,1011.27
2023-02-18T04:55:32.704Z,1011.23
2023-02-18T04:56:32.702Z,1011.24
2023-02-18T04:57:32.671Z,1011.27
2023-02-18T04:58:32.674Z,1011.19
2023-02-18T04:59:32.641Z,1011.17
2023-02-18T05:00:32.663Z,1011.16
2023-02-18T05:01:32.729Z,1011.13
2023-02-18T05:02:32.632Z,1011.14
2023-02-18T05:03:32.603Z,1011.11
2023-02-18T05:04:32.633Z,1011.09
2023-02-18T05:05:32.594Z,1011.10
2023-02-18T05:06:32.612Z,1011.10
2023-02-18T05:07:32.590Z,1011.11
2023-02-18T05:08:32.572Z,1011.08
2023-02-18T05:09:32.574Z,1011.08
2023-02-18T05:10:32.555Z,1011.00
2023-02-18T05:11:32.525Z,1011.00
2023-02-18T05:12:32.546Z,1010.98
2023-02-18T05:13:32.532Z,1011.00
2023-02-18T05:14:32.517Z,1011.04
2023-02-18T05:15:32.522Z,1011.01
2023-02-18T05:16:32.491Z,1011.09
2023-02-18T05:17:32.468Z,1011.03
2023-02-18T05:18:32.481Z,1011.01
2023-02-18T05:19:32.461Z,1010.99
2023-02-18T05:20:32.465Z,1010.97
2023-02-18T05:21:32.432Z,1010.95
2023-02-18T05:22:32.429Z,1010.99
2023-02-18T05:23:32.398Z,1010.96
2023-02-18T05:24:32.413Z,1010.96
2023-02-18T05:25:32.389Z,1010.95
2023-02-18T05:26:32.395Z,1010.98
2023-02-18T05:27:32.362Z,1010.99
2023-02-18T05:28:32.370Z,1011.08
2023-02-18T05:29:32.341Z,1011.01
2023-02-18T05:30:32.401Z,1010.91
2023-02-18T05:31:32.449Z,1010.89
2023-02-18T05:32:32.320Z,1010.86
2023-02-18T05:33:32.309Z,1010.82
2023-02-18T05:34:32.304Z,1010.79
2023-02-18T05:35:32.279Z,1010.76
2023-02-18T05:36:32.294Z,1010.76
2023-02-18T05:37:32.295Z,1010.76
2023-02-18T05:38:32.257Z,1010.71
2023-02-18T05:39:32.225Z,1010.65
2023-02-18T05:40:32.249Z,1010.69
2023-02-18T05:41:32.209Z,1010.71
2023-02-18T05:42:32.228Z,1010.68
2023-02-18T05:43:32.209Z,1010.63
2023-02-18T05:44:32.216Z,1010.58
2023-02-18T05:45:32.157Z,1010.62
2023-02-18T05:46:32.225Z,1010.57
2023-02-18T05:47:32.144Z,1010.55
2023-02-18T05:48:32.160Z,1010.55
2023-02-18T05:49:32.138Z,1010.56
2023-02-18T05:50:32.138Z,1010.53
2023-02-18T05:51:32.098Z,1010.56
2023-02-18T05:52:32.109Z,1010.50
2023-02-18T05:53:32.071Z,1010.43
2023-02-18T05:54:32.084Z,1010.46
2023-02-18T05:55:32.085Z,1010.47
2023-02-18T05:56:32.074Z,1010.39
2023-02-18T05:57:32.038Z,1010.39
2023-02-18T05:58:32.050Z,1010.41
2023-02-18T05:59:32.032Z,1010.41
2023-02-18T06:00:32.033Z,1010.37
2023-02-18T06:01:32.017Z,1010.32
2023-02-18T06:02:32.036Z,1010.30
2023-02-18T06:03:31.973Z,1010.25
2023-02-18T06:04:31.976Z,1010.31
2023-02-18T06:05:32.004Z,1010.27
2023-02-18T06:06:31.955Z,1010.24
2023-02-18T06:07:31.950Z,1010.23
2023-02-18T06:08:31.945Z,1010.22
2023-02-18T06:09:31.904Z,1010.15
2023-02-18T06:10:31.926Z,1010.16
2023-02-18T06:11:31.880Z,1010.15
2023-02-18T06:12:31.907Z,1010.20
2023-02-18T06:13:31.889Z,1010.23
2023-02-18T06:14:31.882Z,1010.21
2023-02-18T06:15:31.902Z,1010.22
2023-02-18T06:16:31.926Z,1010.15
2023-02-18T06:17:31.829Z,1010.18
2023-02-18T06:18:31.829Z,1010.22
2023-02-18T06:19:31.816Z,1010.19
2023-02-18T06:20:31.823Z,1010.19
2023-02-18T06:21:31.776Z,1010.15
2023-02-18T06:22:31.795Z,1010.16
2023-02-18T06:23:31.758Z,1010.13
2023-02-18T06:24:31.774Z,1010.13
2023-02-18T06:25:31.784Z,1010.16
2023-02-18T06:26:31.746Z,1010.15
2023-02-18T06:27:31.711Z,1010.09
2023-02-18T06:28:31.836Z,1010.07
2023-02-18T06:29:31.692Z,1010.11
2023-02-18T06:30:31.732Z,1010.11
2023-02-18T06:31:31.792Z,1010.11
2023-02-18T06:32:31.678Z,1010.06
2023-02-18T06:33:31.648Z,1010.08
2023-02-18T06:34:31.659Z,1010.05
2023-02-18T06:35:32.616Z,1010.04
2023-02-18T06:36:31.644Z,1010.11
2023-02-18T06:37:31.612Z,1010.05
2023-02-18T06:38:31.612Z,1010.09
2023-02-18T06:39:31.581Z,1010.13
2023-02-18T06:40:31.590Z,1010.14
2023-02-18T06:41:31.556Z,1010.22
2023-02-18T06:42:31.598Z,1010.13
2023-02-18T06:43:31.535Z,1010.12
2023-02-18T06:44:31.570Z,1010.14
2023-02-18T06:45:31.513Z,1010.13
2023-02-18T06:46:31.567Z,1010.14
2023-02-18T06:47:31.493Z,1010.17
2023-02-18T06:48:31.522Z,1010.22
2023-02-18T06:49:31.473Z,1010.19
2023-02-18T06:50:31.480Z,1010.18
2023-02-18T06:51:31.469Z,1010.15
2023-02-18T06:52:31.465Z,1010.17
2023-02-18T06:53:31.428Z,1010.23
2023-02-18T06:54:31.450Z,1010.14
2023-02-18T06:55:31.405Z,1010.18
2023-02-18T06:56:31.421Z,1010.20
2023-02-18T06:57:31.396Z,1010.16
2023-02-18T06:58:31.400Z,1010.11
2023-02-18T06:59:31.378Z,1010.13
2023-02-18T07:00:31.425Z,1010.14
2023-02-18T07:01:31.350Z,1010.17
2023-02-18T07:02:31.354Z,1010.11
2023-02-18T07:03:31.335Z,1010.11
2023-02-18T07:04:31.336Z,1010.04
2023-02-18T07:05:31.329Z,1010.10
2023-02-18T07:06:31.311Z,1010.13
2023-02-18T07:07:31.279Z,1010.17
2023-02-18T07:08:31.296Z,1010.12
2023-02-18T07:09:31.265Z,1010.10
2023-02-18T07:10:31.269Z,1010.05
2023-02-18T07:11:31.278Z,1010.06
2023-02-18T07:12:31.257Z,1010.02
2023-02-18T07:13:31.234Z,1010.04
2023-02-18T07:14:31.227Z,1010.01
2023-02-18T07:15:31.204Z,1009.95
2023-02-18T07:16:31.228Z,1009.99
2023-02-18T07:17:31.189Z,1009.99
2023-02-18T07:18:31.193Z,1010.01
2023-02-18T07:19:31.150Z,1009.99
2023-02-18T07:20:31.174Z,1010.04
2023-02-18T07:21:31.133Z,1010.02
2023-02-18T07:22:31.143Z,1009.86
2023-02-18T07:23:31.122Z,1009.98
2023-02-18T07:24:31.121Z,1010.07
2023-02-18T07:25:31.093Z,1010.05
2023-02-18T07:26:31.105Z,1010.04
2023-02-18T07:27:31.069Z,1010.02
2023-02-18T07:28:31.078Z,1009.98
2023-02-18T07:29:31.064Z,1010.07
2023-02-18T07:30:31.334Z,1009.98
2023-02-18T07:31:31.133Z,1010.03
2023-02-18T07:32:31.038Z,1010.05
2023-02-18T07:33:31.001Z,1010.01
2023-02-18T07:34:31.013Z,1010.06
2023-02-18T07:35:31.011Z,1010.04
2023-02-18T07:36:30.992Z,1010.00
2023-02-18T07:37:30.959Z,1010.06
2023-02-18T07:38:30.972Z,1010.08
2023-02-18T07:39:30.939Z,1010.00
2023-02-18T07:40:30.956Z,1010.05
2023-02-18T07:41:30.956Z,1010.02
2023-02-18T07:42:30.930Z,1010.00
2023-02-18T07:43:30.907Z,1010.02
2023-02-18T07:44:30.920Z,1010.01
2023-02-18T07:45:30.898Z,1010.06
2023-02-18T07:46:30.902Z,1010.08
2023-02-18T07:47:30.854Z,1010.08
2023-02-18T07:48:30.868Z,1010.10
2023-02-18T07:49:30.832Z,1010.11
2023-02-18T07:50:30.843Z,1010.08
2023-02-18T07:51:30.811Z,1010.12
2023-02-18T07:52:30.838Z,1010.14
2023-02-18T07:53:30.915Z,1010.18
2023-02-18T07:54:30.806Z,1010.09
2023-02-18T07:55:30.792Z,1010.10
2023-02-18T07:56:30.764Z,1010.11
2023-02-18T07:57:30.773Z,1010.07
2023-02-18T07:58:30.737Z,1010.05
2023-02-18T07:59:30.765Z,1010.19
2023-02-18T08:00:30.716Z,1010.17
2023-02-18T08:01:30.729Z,1010.07
2023-02-18T08:02:30.713Z,1010.09
2023-02-18T08:03:30.724Z,1010.09
2023-02-18T08:04:30.742Z,1010.24
2023-02-18T08:05:30.721Z,1010.15
2023-02-18T08:06:30.651Z,1010.19
2023-02-18T08:07:30.665Z,1010.21
2023-02-18T08:08:30.631Z,1010.21
2023-02-18T08:09:30.658Z,1010.21
2023-02-18T08:10:30.609Z,1010.27
2023-02-18T08:11:30.633Z,1010.28
2023-02-18T08:12:30.591Z,1010.29
2023-02-18T08:13:30.613Z,1010.48
2023-02-18T08:14:30.572Z,1010.31
2023-02-18T08:15:30.582Z,1010.26
2023-02-18T08:16:30.606Z,1010.35
2023-02-18T08:17:30.562Z,1010.32
2023-02-18T08:18:30.534Z,1010.32
2023-02-18T08:19:30.542Z,1010.31
2023-02-18T08:20:30.908Z,1010.20
2023-02-18T08:21:30.520Z,1010.24
2023-02-18T08:22:30.510Z,1010.24
2023-02-18T08:23:30.498Z,1010.25
2023-02-18T08:24:30.475Z,1010.32
2023-02-18T08:25:30.476Z,1010.33
2023-02-18T08:26:30.448Z,1010.28
2023-02-18T08:27:30.458Z,1010.29
2023-02-18T08:28:30.440Z,1010.27
2023-02-18T08:29:30.437Z,1010.24
2023-02-18T08:30:30.483Z,1010.24
2023-02-18T08:31:30.563Z,1010.34
2023-02-18T08:32:30.387Z,1010.27
2023-02-18T08:33:30.418Z,1010.16
2023-02-18T08:34:30.364Z,1010.29
2023-02-18T08:35:30.379Z,1010.37
2023-02-18T08:36:30.347Z,1010.38
2023-02-18T08:37:30.359Z,1010.32
2023-02-18T08:38:30.324Z,1010.27
2023-02-18T08:39:30.348Z,1010.35
2023-02-18T08:40:30.304Z,1010.37
2023-02-18T08:41:30.311Z,1010.27
2023-02-18T08:42:30.280Z,1010.32
2023-02-18T08:43:30.291Z,1010.27
2023-02-18T08:44:30.256Z,1010.36
2023-02-18T08:45:30.295Z,1010.22
2023-02-18T08:46:33.831Z,1010.28
2023-02-18T08:48:17.521Z,1010.26
2023-02-18T08:48:30.230Z,1010.22
2023-02-18T08:49:30.224Z,1010.17
2023-02-18T08:50:30.192Z,1010.22
2023-02-18T08:51:30.245Z,1010.13
2023-02-18T08:52:30.169Z,1010.21
2023-02-18T08:53:30.181Z,1010.08
2023-02-18T08:54:30.149Z,1010.08
2023-02-18T08:55:30.162Z,1010.20
2023-02-18T08:56:30.135Z,1010.12
2023-02-18T08:57:30.155Z,1010.04
2023-02-18T08:58:30.113Z,1010.15
2023-02-18T08:59:30.121Z,1010.16
2023-02-18T09:00:30.123Z,1010.20
2023-02-18T09:01:30.169Z,1010.12
2023-02-18T09:02:30.062Z,1010.19
2023-02-18T09:03:30.092Z,1010.29
2023-02-18T09:04:30.105Z,1010.18
2023-02-18T09:05:30.072Z,1010.20
2023-02-18T09:06:30.028Z,1010.13
2023-02-18T09:07:30.034Z,1010.13
2023-02-18T09:08:30.002Z,1010.14
2023-02-18T09:09:30.039Z,1010.13
2023-02-18T09:10:30.133Z,1010.07
2023-02-18T09:11:29.990Z,1010.07
2023-02-18T09:12:29.956Z,1010.09
2023-02-18T09:13:29.969Z,1010.07
2023-02-18T09:14:29.941Z,1010.07
2023-02-18T09:15:30.018Z,1010.05
2023-02-18T09:16:29.913Z,1010.03
2023-02-18T09:17:29.941Z,1009.97
2023-02-18T09:18:29.891Z,1009.96
2023-02-18T09:19:29.908Z,1009.89
2023-02-18T09:20:29.893Z,1009.94
2023-02-18T09:21:29.888Z,1009.98
2023-02-18T09:22:29.853Z,1009.98
2023-02-18T09:23:29.868Z,1009.99
2023-02-18T09:24:29.826Z,1010.06
2023-02-18T09:25:29.840Z,1009.98
2023-02-18T09:26:29.859Z,1009.86
2023-02-18T09:27:29.815Z,1009.97
2023-02-18T09:28:29.782Z,1009.92
2023-02-18T09:29:29.801Z,1009.97
2023-02-18T09:30:29.846Z,1009.96
2023-02-18T09:31:30.022Z,1010.02
2023-02-18T09:32:35.087Z,1010.09
2023-02-18T09:33:29.765Z,1009.84
2023-02-18T09:34:29.726Z,1009.76
2023-02-18T09:35:29.730Z,1009.98
2023-02-18T09:36:29.734Z,1009.92
2023-02-18T09:37:29.748Z,1009.97
2023-02-18T09:38:29.683Z,1009.95
2023-02-18T09:39:29.690Z,1009.94
2023-02-18T09:40:29.731Z,1010.07
2023-02-18T09:41:29.673Z,1009.97
2023-02-18T09:42:29.632Z,1010.08
2023-02-18T09:43:29.660Z,1009.87
2023-02-18T09:44:29.620Z,1010.00
2023-02-18T09:45:29.625Z,1010.03
2023-02-18T09:46:29.645Z,1010.07
2023-02-18T09:47:29.605Z,1010.23
2023-02-18T09:48:29.589Z,1010.77
2023-02-18T09:49:29.592Z,1010.22
2023-02-18T09:50:29.549Z,1009.95
2023-02-18T09:51:29.562Z,1010.15
2023-02-18T09:52:29.536Z,1010.09
2023-02-18T09:53:29.549Z,1010.08
2023-02-18T09:54:29.509Z,1010.17
2023-02-18T09:55:29.521Z,1010.07
2023-02-18T09:56:29.485Z,1010.04
2023-02-18T09:57:29.499Z,1010.10
2023-02-18T09:58:29.476Z,1010.01
2023-02-18T09:59:29.480Z,1010.01
2023-02-18T10:00:29.440Z,1010.08
2023-02-18T10:01:29.473Z,1010.13
2023-02-18T10:02:29.432Z,1010.06
2023-02-18T10:03:29.445Z,1010.08
2023-02-18T10:04:29.410Z,1010.02
2023-02-18T10:05:29.412Z,1010.02
2023-02-18T10:06:29.392Z,1010.03
2023-02-18T10:07:29.391Z,1009.98
2023-02-18T10:08:29.382Z,1010.06
2023-02-18T10:09:29.388Z,1009.95
2023-02-18T10:10:29.332Z,1010.12
2023-02-18T10:11:29.356Z,1009.98
2023-02-18T10:12:29.320Z,1010.06
2023-02-18T10:13:29.347Z,1010.02
2023-02-18T10:14:29.293Z,1010.01
2023-02-18T10:15:29.313Z,1010.07
2023-02-18T10:16:29.374Z,1010.03
2023-02-18T10:17:29.286Z,1010.08
2023-02-18T10:19:29.275Z,1010.04
2023-02-18T10:20:29.230Z,1010.09
2023-02-18T10:21:29.242Z,1010.13
2023-02-18T10:22:29.209Z,1010.08
2023-02-18T10:23:29.220Z,1010.06
2023-02-18T10:24:29.202Z,1010.10
2023-02-18T10:25:29.205Z,1010.11
2023-02-18T10:26:29.174Z,1010.17
2023-02-18T10:27:29.185Z,1010.06
2023-02-18T10:28:29.147Z,1010.13
2023-02-18T10:29:29.174Z,1010.14
2023-02-18T10:30:29.155Z,1010.13
2023-02-18T10:31:29.245Z,1010.29
2023-02-18T10:32:29.109Z,1010.27
2023-02-18T10:33:29.114Z,1010.26
2023-02-18T10:34:29.097Z,1010.30
2023-02-18T10:35:29.094Z,1010.20
2023-02-18T10:36:29.065Z,1010.19
2023-02-18T10:37:29.082Z,1010.32
2023-02-18T10:38:29.041Z,1010.37
2023-02-18T10:39:29.066Z,1010.34
2023-02-18T10:40:29.025Z,1010.31
2023-02-18T10:41:29.030Z,1010.23
2023-02-18T10:42:28.998Z,1010.18
2023-02-18T10:43:29.010Z,1010.31
2023-02-18T10:44:28.979Z,1010.12
2023-02-18T10:45:29.001Z,1010.19
2023-02-18T10:46:28.978Z,1010.25
2023-02-18T10:47:28.973Z,1010.18
2023-02-18T10:48:28.946Z,1010.22
2023-02-18T10:49:28.949Z,1010.28
2023-02-18T10:50:28.926Z,1010.26
2023-02-18T10:51:28.923Z,1010.33
2023-02-18T10:52:28.893Z,1010.31
2023-02-18T10:53:28.903Z,1010.29
2023-02-18T10:54:28.871Z,1010.32
2023-02-18T10:55:28.889Z,1010.33
2023-02-18T10:56:28.886Z,1010.40
2023-02-18T10:57:28.860Z,1010.35
2023-02-18T10:58:28.826Z,1010.31
2023-02-18T10:59:28.839Z,1010.37
2023-02-18T11:00:28.804Z,1010.41
2023-02-18T11:01:28.842Z,1010.31
2023-02-18T11:02:28.784Z,1010.26
2023-02-18T11:03:28.795Z,1010.18
2023-02-18T11:04:28.792Z,1010.32
2023-02-18T11:05:28.781Z,1010.31
2023-02-18T11:06:28.975Z,1010.34
2023-02-18T11:07:28.756Z,1010.37
2023-02-18T11:08:28.727Z,1010.38
2023-02-18T11:09:28.744Z,1010.42
2023-02-18T11:10:28.714Z,1010.33
2023-02-18T11:11:28.749Z,1010.47
2023-02-18T11:12:28.684Z,1010.50
2023-02-18T11:13:28.702Z,1010.45
2023-02-18T11:14:28.655Z,1010.39
2023-02-18T11:15:28.674Z,1010.33
2023-02-18T11:16:28.667Z,1010.31
2023-02-18T11:17:28.661Z,1010.43
2023-02-18T11:18:28.612Z,1010.31
2023-02-18T11:19:28.623Z,1010.27
2023-02-18T11:20:29.182Z,1010.29
2023-02-18T11:21:28.601Z,1010.29
2023-02-18T11:22:28.567Z,1010.27
2023-02-18T11:23:28.598Z,1010.21
2023-02-18T11:24:28.549Z,1010.23
2023-02-18T11:25:28.572Z,1010.28
2023-02-18T11:26:28.536Z,1010.31
2023-02-18T11:27:28.540Z,1010.30
2023-02-18T11:28:28.520Z,1010.29
2023-02-18T11:29:28.535Z,1010.22
2023-02-18T11:30:28.495Z,1010.26
2023-02-18T11:31:28.576Z,1010.29
2023-02-18T11:32:28.462Z,1010.23
2023-02-18T11:33:28.716Z,1010.25
2023-02-18T11:34:28.460Z,1010.29
2023-02-18T11:35:28.455Z,1010.19
2023-02-18T11:36:29.175Z,1010.29
2023-02-18T11:37:28.432Z,1010.38
2023-02-18T11:38:28.415Z,1010.36
2023-02-18T11:39:28.413Z,1010.30
2023-02-18T11:40:29.182Z,1010.36
2023-02-18T11:41:28.399Z,1010.29
2023-02-18T11:42:28.361Z,1010.35
2023-02-18T11:43:28.368Z,1010.34
2023-02-18T11:44:28.335Z,1010.30
2023-02-18T11:45:28.360Z,1010.32
2023-02-18T11:46:28.342Z,1010.27
2023-02-18T11:47:28.325Z,1010.19
2023-02-18T11:48:28.293Z,1010.28
2023-02-18T11:49:28.304Z,1010.29
2023-02-18T11:50:28.299Z,1010.29
2023-02-18T11:51:28.286Z,1010.25
2023-02-18T11:52:28.251Z,1010.29
2023-02-18T11:53:28.262Z,1010.25
2023-02-18T11:54:28.228Z,1010.31
2023-02-18T11:55:28.240Z,1010.36
2023-02-18T11:56:28.225Z,1010.30
2023-02-18T11:57:28.228Z,1010.27
2023-02-18T11:58:28.192Z,1010.18
2023-02-18T11:59:28.203Z,1010.30
2023-02-18T12:00:28.170Z,1010.28
2023-02-18T12:01:28.184Z,1010.33
2023-02-18T12:02:28.160Z,1010.28
2023-02-18T12:03:28.164Z,1010.26
2023-02-18T12:04:28.128Z,1010.20
2023-02-18T12:05:28.173Z,1010.27
2023-02-18T12:06:28.116Z,1010.25